Pagina principale
METAR-TAF:

METAR-TAF

Aeroporti :

Ancona, Italia

latitudine: 43-37N, longitudine: 013-22E, altezza: 12 m

Osservazione

Il bollettino è stato emesso 32 minuti fa, alle 23:20 UTC
Vento 3 kt da sud/sud-ovest, variando fra sud/sud-est e sud-ovest
Temperature 16°C
Umidità 59%
Pressione 1009 hPa
Visibilità 10 km o più

METAR: LIPY 152320Z AUTO 20003KT 160V230 9999 BKN095/// BKN110/// 16/08 Q1009

Ora: 01:52 (23:52 UTC)

Previsione

Il bollettino è stato emesso 52 minuti fa, alle 23:00 UTC
Previsione valida dal 16 alle 00 UTC al 16 alle 24 UTC
Vento 10 kt da ovest/sud-ovest
Visibilità 10 km o più
Nubi sparse ad un'altezza di 6000 ft
Temporaneamente
dal 16 alle 06 UTC al 16 alle 12 UTC
Vento 15 kt da ovest/sud-ovest con raffiche fino a 25 kt
Evoluzione graduale
dal 16 alle 13 UTC al 16 alle 15 UTC
Vento 10 kt da sud-est

TAF: LIPY 152300Z 1600/1624 24010KT 9999 SCT060 TEMPO 1606/1612 24015G25KT BECMG 1613/1615 14010KT

Osservazioni e previsioni meteorologiche di più di 4000 aeroporti (messaggi METAR e TAF).

Le stazioni disponibili sono rappresentate dai dischi gialli e rossi sulla carta.

Puntare il mouse per vedere il nome della stazione.

Clicca sopra per visualizzare le osservazioni e previsioni meteorologiche.

Per cambiare la mappa : fare clic sui pulsanti verdi con una croce nera per ingrandire, il pulsante verde con un trattino per diminuire, o sulla freccia verde per le mappe adiacenti.


METAR-TAF: